Terminal Aerodrome Forecast
Issued by NWS

Home | Current Version | Previous Version | Text Only | Print | Product List | Glossary On
Versions: 1 2 3 4 5 6 7 8 9 10 11 12 13
000
FTUS41 KBTV 220532
TAFMSS
TAF
KMSS 220532Z 2206/2306 VRB03KT P6SM SCT200
     FM221300 00000KT P6SM BKN070
     FM221700 29005KT P6SM SCT070=

USA.gov is the U.S. government's official web portal to all federal, state and local government web resources and services.